createdAt,value
2022-10-15T00:01:20.740Z,100739.81
2022-10-15T00:03:47.269Z,100741.78
2022-10-15T00:06:16.586Z,100734.84
2022-10-15T00:08:43.824Z,100733.38
2022-10-15T00:11:20.487Z,100734.84
2022-10-15T00:13:47.251Z,100726.66
2022-10-15T00:16:16.155Z,100723.69
2022-10-15T00:18:42.898Z,100720.97
2022-10-15T00:21:12.184Z,100714.00
2022-10-15T00:23:38.960Z,100715.22
2022-10-15T00:26:10.464Z,100719.44
2022-10-15T00:28:37.161Z,100718.69
2022-10-15T00:31:07.187Z,100714.47
2022-10-15T00:33:34.380Z,100721.91
2022-10-15T00:36:03.500Z,100711.00
2022-10-15T00:38:30.741Z,100716.72
2022-10-15T00:40:57.968Z,100721.91
2022-10-15T00:43:47.957Z,100721.16
2022-10-15T00:46:25.319Z,100721.91
2022-10-15T00:48:57.140Z,100727.81
2022-10-15T00:51:28.985Z,100727.81
2022-10-15T00:53:55.692Z,100722.09
2022-10-15T00:56:26.553Z,100715.41
2022-10-15T00:58:54.474Z,100722.09
2022-10-15T01:01:21.385Z,100718.59
2022-10-15T01:03:47.928Z,100714.63
2022-10-15T01:06:14.363Z,100716.34
2022-10-15T01:08:40.910Z,100711.19
2022-10-15T01:11:36.641Z,100715.13
2022-10-15T01:14:23.372Z,100714.84
2022-10-15T01:17:09.472Z,100707.44
2022-10-15T01:20:04.650Z,100702.44
2022-10-15T01:23:03.683Z,100702.44
2022-10-15T01:25:51.383Z,100705.91
2022-10-15T01:28:29.806Z,100711.09
2022-10-15T01:31:05.820Z,100705.63
2022-10-15T01:33:45.390Z,100708.09
2022-10-15T01:36:17.463Z,100706.09
2022-10-15T01:38:58.689Z,100711.56
2022-10-15T01:41:36.662Z,100706.88
2022-10-15T01:44:15.727Z,100691.78
2022-10-15T01:46:58.851Z,100685.56
2022-10-15T01:49:30.359Z,100691.78
2022-10-15T01:52:02.215Z,100682.84
2022-10-15T01:54:29.156Z,100691.03
2022-10-15T01:56:58.061Z,100683.28
2022-10-15T01:59:28.802Z,100678.31
2022-10-15T02:01:57.911Z,100682.06
2022-10-15T02:04:27.761Z,100684.50
2022-10-15T02:07:07.900Z,100680.31
2022-10-15T02:10:10.030Z,100683.28
2022-10-15T02:12:42.207Z,100681.78
2022-10-15T02:15:28.890Z,100680.31
2022-10-15T02:18:29.515Z,100680.31
2022-10-15T02:21:00.014Z,100687.72
2022-10-15T02:23:41.431Z,100678.03
2022-10-15T02:26:10.612Z,100675.31
2022-10-15T02:28:40.432Z,100672.28
2022-10-15T02:31:10.546Z,100674.56
2022-10-15T02:33:38.894Z,100676.09
2022-10-15T02:36:06.673Z,100667.13
2022-10-15T02:38:35.103Z,100659.94
2022-10-15T02:41:02.831Z,100658.69
2022-10-15T02:43:30.314Z,100660.69
2022-10-15T02:45:56.757Z,100655.97
2022-10-15T02:48:23.942Z,100665.38
2022-10-15T02:50:50.393Z,100660.69
2022-10-15T02:53:16.817Z,100659.44
2022-10-15T02:55:43.341Z,100665.38
2022-10-15T02:58:09.864Z,100657.97
2022-10-15T03:00:36.250Z,100663.09
2022-10-15T03:03:02.716Z,100664.88
2022-10-15T03:05:29.432Z,100668.84
2022-10-15T03:07:56.346Z,100658.44
2022-10-15T03:10:22.952Z,100665.81
2022-10-15T03:12:49.363Z,100662.34
2022-10-15T03:15:15.849Z,100656.91
2022-10-15T03:17:42.302Z,100665.56
2022-10-15T03:20:09.139Z,100658.88
2022-10-15T03:22:35.621Z,100665.81
2022-10-15T03:25:02.022Z,100664.31
2022-10-15T03:27:28.447Z,100660.88
2022-10-15T03:29:54.942Z,100666.31
2022-10-15T03:32:21.448Z,100671.75
2022-10-15T03:34:47.915Z,100667.03
2022-10-15T03:37:14.326Z,100673.72
2022-10-15T03:39:40.747Z,100674.47
2022-10-15T03:42:07.179Z,100678.41
2022-10-15T03:44:34.777Z,100681.91
2022-10-15T03:47:01.329Z,100679.16
2022-10-15T03:49:27.762Z,100676.91
2022-10-15T03:51:54.162Z,100674.19
2022-10-15T03:54:20.596Z,100672.66
2022-10-15T03:56:47.003Z,100676.63
2022-10-15T03:59:13.425Z,100678.88
2022-10-15T04:01:39.904Z,100679.34
2022-10-15T04:04:06.359Z,100676.63
2022-10-15T04:06:34.390Z,100685.53
2022-10-15T04:09:00.857Z,100692.97
2022-10-15T04:11:27.320Z,100697.66
2022-10-15T04:13:53.727Z,100691.47
2022-10-15T04:16:20.238Z,100690.72
2022-10-15T04:18:46.628Z,100693.88
2022-10-15T04:21:13.154Z,100693.16
2022-10-15T04:23:39.561Z,100689.66
2022-10-15T04:26:06.414Z,100690.44
2022-10-15T04:28:33.432Z,100701.34
2022-10-15T04:31:01.086Z,100695.41
2022-10-15T04:33:28.080Z,100695.41
2022-10-15T04:36:02.582Z,100701.78
2022-10-15T04:38:29.298Z,100697.06
2022-10-15T04:41:01.733Z,100699.81
2022-10-15T04:43:29.073Z,100704.78
2022-10-15T04:45:57.610Z,100708.94
2022-10-15T04:48:24.409Z,100708.44
2022-10-15T04:50:50.967Z,100701.47
2022-10-15T04:53:17.734Z,100707.97
2022-10-15T04:55:44.176Z,100706.94
2022-10-15T04:58:10.673Z,100715.09
2022-10-15T05:00:37.964Z,100715.09
2022-10-15T05:03:06.132Z,100716.34
2022-10-15T05:05:32.690Z,100714.38
2022-10-15T05:08:00.936Z,100712.09
2022-10-15T05:10:27.458Z,100715.84
2022-10-15T05:12:56.711Z,100724.50
2022-10-15T05:15:25.913Z,100714.06
2022-10-15T05:17:52.334Z,100728.88
2022-10-15T05:20:18.811Z,100719.50
2022-10-15T05:22:45.206Z,100727.41
2022-10-15T05:25:11.641Z,100728.13
2022-10-15T05:27:38.090Z,100740.53
2022-10-15T05:30:05.239Z,100743.72
2022-10-15T05:32:31.629Z,100742.50
2022-10-15T05:34:58.090Z,100751.16
2022-10-15T05:37:24.850Z,100750.41
2022-10-15T05:39:51.469Z,100746.13
2022-10-15T05:42:17.879Z,100754.31
2022-10-15T05:44:44.317Z,100752.06
2022-10-15T05:47:12.375Z,100754.03
2022-10-15T05:49:38.900Z,100759.75
2022-10-15T05:52:05.341Z,100758.25
2022-10-15T05:54:32.374Z,100764.94
2022-10-15T05:56:58.783Z,100763.41
2022-10-15T05:59:25.185Z,100755.25
2022-10-15T06:01:51.663Z,100767.16
2022-10-15T06:04:18.122Z,100767.66
2022-10-15T06:06:44.560Z,100762.22
2022-10-15T06:09:11.014Z,100756.00
2022-10-15T06:11:37.558Z,100762.97
2022-10-15T06:14:04.073Z,100761.88
2022-10-15T06:16:30.462Z,100769.31
2022-10-15T06:18:56.887Z,100766.91
2022-10-15T06:21:23.325Z,100759.66
2022-10-15T06:23:49.959Z,100770.06
2022-10-15T06:26:16.463Z,100769.31
2022-10-15T06:28:43.127Z,100759.66
2022-10-15T06:31:09.608Z,100765.56
2022-10-15T06:33:36.390Z,100767.53
2022-10-15T06:36:08.996Z,100774.19
2022-10-15T06:38:35.736Z,100781.13
2022-10-15T06:41:06.926Z,100780.38
2022-10-15T06:43:35.264Z,100775.69
2022-10-15T06:46:04.050Z,100776.91
2022-10-15T06:48:30.718Z,100774.19
2022-10-15T06:50:59.266Z,100781.31
2022-10-15T06:53:25.686Z,100787.03
2022-10-15T06:55:52.110Z,100790.06
2022-10-15T06:58:19.140Z,100789.31
2022-10-15T07:00:45.560Z,100790.81
2022-10-15T07:03:11.969Z,100794.00
2022-10-15T07:05:38.384Z,100798.22
2022-10-15T07:08:05.143Z,100810.03
2022-10-15T07:10:31.682Z,100801.41
2022-10-15T07:13:01.609Z,100811.53
2022-10-15T07:15:28.918Z,100806.09
2022-10-15T07:18:02.739Z,100806.84
2022-10-15T07:20:30.849Z,100807.59
2022-10-15T07:23:01.543Z,100811.84
2022-10-15T07:25:28.418Z,100810.03
2022-10-15T07:27:55.824Z,100819.25
2022-10-15T07:30:23.975Z,100823.19
2022-10-15T07:32:50.393Z,100823.19
2022-10-15T07:35:16.969Z,100819.25
2022-10-15T07:37:43.407Z,100831.34
2022-10-15T07:40:10.440Z,100822.41
2022-10-15T07:42:36.917Z,100827.88
2022-10-15T07:45:03.707Z,100823.94
2022-10-15T07:47:30.241Z,100831.34
2022-10-15T07:49:56.671Z,100827.41
2022-10-15T07:52:23.422Z,100828.63
2022-10-15T07:54:50.122Z,100829.38
2022-10-15T07:57:17.564Z,100820.91
2022-10-15T07:59:43.988Z,100832.38
2022-10-15T08:02:16.003Z,100829.38
2022-10-15T08:04:42.474Z,100824.69
2022-10-15T08:07:10.314Z,100834.34
2022-10-15T08:09:37.186Z,100828.44
2022-10-15T08:12:04.375Z,100824.97
2022-10-15T08:14:30.862Z,100839.34
2022-10-15T08:16:57.290Z,100843.53
2022-10-15T08:19:23.693Z,100845.25
2022-10-15T08:21:50.119Z,100843.53
2022-10-15T08:24:16.667Z,100850.94
2022-10-15T08:26:43.085Z,100848.22
2022-10-15T08:29:10.822Z,100850.94
2022-10-15T08:31:39.050Z,100851.69
2022-10-15T08:34:07.130Z,100854.44
2022-10-15T08:36:33.829Z,100855.97
2022-10-15T08:39:01.081Z,100855.50
2022-10-15T08:41:50.073Z,100846.59
2022-10-15T08:44:46.209Z,100848.06
2022-10-15T08:47:18.744Z,100852.28
2022-10-15T08:49:58.283Z,100846.09
2022-10-15T08:52:46.122Z,100854.56
2022-10-15T08:55:15.495Z,100845.91
2022-10-15T08:58:03.544Z,100845.75
2022-10-15T09:00:38.712Z,100844.66
2022-10-15T09:03:15.805Z,100840.06
2022-10-15T09:05:52.970Z,100844.41
2022-10-15T09:08:27.679Z,100845.28
2022-10-15T09:10:59.805Z,100845.09
2022-10-15T09:13:41.153Z,100844.28
2022-10-15T09:16:29.297Z,100838.94
2022-10-15T09:18:58.549Z,100846.72
2022-10-15T09:21:28.453Z,100846.09
2022-10-15T09:24:04.994Z,100842.25
2022-10-15T09:26:51.743Z,100845.81
2022-10-15T09:29:30.581Z,100842.75
2022-10-15T09:32:10.061Z,100844.78
2022-10-15T09:34:54.447Z,100844.38
2022-10-15T09:37:29.428Z,100848.00
2022-10-15T09:40:28.392Z,100850.03
2022-10-15T09:42:57.338Z,100852.13
2022-10-15T09:45:24.319Z,100845.72
2022-10-15T09:47:51.100Z,100846.25
2022-10-15T09:53:01.638Z,100837.25
2022-10-15T09:55:44.531Z,100840.53
2022-10-15T09:58:28.065Z,100842.31
2022-10-15T10:01:06.301Z,100834.69
2022-10-15T10:03:34.205Z,100837.97
2022-10-15T10:06:12.467Z,100837.78
2022-10-15T10:08:51.152Z,100841.53
2022-10-15T10:11:19.051Z,100843.75
2022-10-15T10:13:46.107Z,100846.00
2022-10-15T10:16:14.875Z,100847.31
2022-10-15T10:18:42.983Z,100850.63
2022-10-15T10:21:28.520Z,100848.16
2022-10-15T10:23:54.983Z,100857.34
2022-10-15T10:26:21.802Z,100856.44
2022-10-15T10:29:04.686Z,100855.94
2022-10-15T10:31:42.598Z,100850.28
2022-10-15T10:34:18.005Z,100847.84
2022-10-15T10:36:52.492Z,100838.19
2022-10-15T10:39:27.943Z,100842.47
2022-10-15T10:42:06.591Z,100836.53
2022-10-15T10:44:46.398Z,100843.00
2022-10-15T10:47:26.539Z,100840.06
2022-10-15T10:49:57.645Z,100830.91
2022-10-15T10:52:36.198Z,100827.72
2022-10-15T10:55:07.726Z,100833.69
2022-10-15T10:57:45.494Z,100834.75
2022-10-15T11:00:20.025Z,100834.53
2022-10-15T11:02:46.799Z,100839.03
2022-10-15T11:05:13.341Z,100843.28
2022-10-15T11:07:43.987Z,100842.53
2022-10-15T11:10:26.020Z,100829.16
2022-10-15T11:13:01.872Z,100830.66
2022-10-15T11:16:03.721Z,100835.84
2022-10-15T11:18:30.118Z,100837.34
2022-10-15T11:21:14.889Z,100831.59
2022-10-15T11:24:48.264Z,100830.09
2022-10-15T11:27:38.962Z,100828.13
2022-10-15T11:30:38.225Z,100823.88
2022-10-15T11:33:15.662Z,100824.91
2022-10-15T11:35:53.202Z,100822.47
2022-10-15T11:38:42.382Z,100812.28
2022-10-15T11:41:41.307Z,100810.31
2022-10-15T11:44:38.620Z,100806.88
2022-10-15T11:47:21.311Z,100811.09
2022-10-15T11:49:59.804Z,100808.63
2022-10-15T11:52:29.251Z,100805.44
2022-10-15T11:55:11.446Z,100810.38
2022-10-15T11:57:40.325Z,100802.94
2022-10-15T12:00:16.906Z,100805.22
2022-10-15T12:02:43.868Z,100801.28
2022-10-15T12:05:18.538Z,100795.53
2022-10-15T12:07:49.657Z,100801.00
2022-10-15T12:10:37.872Z,100797.47
2022-10-15T12:13:42.053Z,100791.78
2022-10-15T12:16:25.065Z,100788.28
2022-10-15T12:18:57.193Z,100782.59
2022-10-15T12:21:55.955Z,100785.03
2022-10-15T12:24:52.322Z,100785.03
2022-10-15T12:27:18.745Z,100774.59
2022-10-15T12:29:51.133Z,100766.63
2022-10-15T12:32:46.530Z,100758.16
2022-10-15T12:35:16.056Z,100762.59
2022-10-15T12:37:46.291Z,100761.09
2022-10-15T12:40:31.192Z,100764.28
2022-10-15T12:43:00.907Z,100762.78
2022-10-15T12:45:40.462Z,100758.75
2022-10-15T12:48:21.550Z,100754.53
2022-10-15T12:50:47.929Z,100759.00
2022-10-15T12:53:28.525Z,100755.97
2022-10-15T12:56:25.579Z,100749.97
2022-10-15T12:58:56.124Z,100747.72
2022-10-15T13:01:22.619Z,100756.41
2022-10-15T13:03:49.423Z,100750.19
2022-10-15T13:06:22.150Z,100741.00
2022-10-15T13:09:00.442Z,100754.38
2022-10-15T13:11:36.199Z,100752.59
2022-10-15T13:14:27.045Z,100741.41
2022-10-15T13:16:53.769Z,100742.63
2022-10-15T13:19:22.515Z,100749.06
2022-10-15T13:21:52.976Z,100758.44
2022-10-15T13:24:25.544Z,100763.16
2022-10-15T13:26:53.811Z,100745.47
2022-10-15T13:29:28.269Z,100757.13
2022-10-15T13:31:56.876Z,100750.94
2022-10-15T13:34:25.517Z,100752.66
2022-10-15T13:36:54.047Z,100749.66
2022-10-15T13:39:27.093Z,100750.88
2022-10-15T13:42:05.820Z,100756.81
2022-10-15T13:44:32.478Z,100750.31
2022-10-15T13:46:58.881Z,100746.59
2022-10-15T13:49:28.065Z,100758.72
2022-10-15T13:51:55.580Z,100752.50
2022-10-15T13:54:24.893Z,100749.53
2022-10-15T13:56:57.976Z,100747.75
2022-10-15T13:59:27.472Z,100747.00
2022-10-15T14:02:00.873Z,100745.22
2022-10-15T14:04:29.437Z,100743.72
2022-10-15T14:07:21.901Z,100741.47
2022-10-15T14:09:49.274Z,100736.50
2022-10-15T14:12:15.684Z,100732.72
2022-10-15T14:14:46.759Z,100729.25
2022-10-15T14:17:17.507Z,100721.56
2022-10-15T14:20:14.372Z,100718.56
2022-10-15T14:22:38.800Z,100717.06
2022-10-15T14:25:10.268Z,100716.78
2022-10-15T14:27:36.804Z,100724.19
2022-10-15T14:30:25.935Z,100702.56
2022-10-15T14:32:52.824Z,100715.75
2022-10-15T14:35:31.698Z,100710.03
2022-10-15T14:38:18.374Z,100715.94
2022-10-15T14:41:06.328Z,100708.50
2022-10-15T14:43:36.805Z,100702.06
2022-10-15T14:46:08.430Z,100700.56
2022-10-15T14:48:37.262Z,100707.69
2022-10-15T14:51:06.558Z,100710.16
2022-10-15T14:53:39.199Z,100707.41
2022-10-15T14:56:31.205Z,100703.16
2022-10-15T14:58:58.604Z,100706.38
2022-10-15T15:01:27.518Z,100704.13
2022-10-15T15:03:56.143Z,100705.84
2022-10-15T15:06:23.250Z,100708.09
2022-10-15T15:08:49.741Z,100707.06
2022-10-15T15:11:22.675Z,100713.25
2022-10-15T15:13:52.657Z,100715.72
2022-10-15T15:16:19.471Z,100701.03
2022-10-15T15:18:48.316Z,100692.88
2022-10-15T15:21:19.620Z,100696.81
2022-10-15T15:23:47.367Z,100696.09
2022-10-15T15:26:13.823Z,100692.31
2022-10-15T15:28:40.263Z,100692.31
2022-10-15T15:31:12.621Z,100687.34
2022-10-15T15:33:39.072Z,100688.81
2022-10-15T15:36:13.215Z,100682.38
2022-10-15T15:38:39.769Z,100682.38
2022-10-15T15:41:15.695Z,100686.28
2022-10-15T15:43:42.829Z,100682.84
2022-10-15T15:46:09.717Z,100688.31
2022-10-15T15:48:36.686Z,100689.53
2022-10-15T15:51:06.237Z,100688.78
2022-10-15T15:53:32.791Z,100694.22
2022-10-15T15:55:59.213Z,100693.47
2022-10-15T15:58:25.795Z,100700.44
2022-10-15T16:00:52.360Z,100704.09
2022-10-15T16:03:18.797Z,100709.53
2022-10-15T16:05:45.725Z,100708.03
2022-10-15T16:08:12.941Z,100710.75
2022-10-15T16:10:39.357Z,100708.50
2022-10-15T16:13:05.765Z,100686.72
2022-10-15T16:15:32.322Z,100694.88
2022-10-15T16:17:58.740Z,100693.41
2022-10-15T16:20:25.185Z,100691.41
2022-10-15T16:22:53.082Z,100691.88
2022-10-15T16:25:21.455Z,100685.94
2022-10-15T16:27:48.968Z,100693.41
2022-10-15T16:30:16.251Z,100685.69
2022-10-15T16:32:42.725Z,100689.63
2022-10-15T16:35:09.431Z,100686.16
2022-10-15T16:37:35.998Z,100687.41
2022-10-15T16:40:02.786Z,100686.66
2022-10-15T16:42:29.254Z,100686.66
2022-10-15T16:44:55.678Z,100690.88
2022-10-15T16:47:22.261Z,100693.59
2022-10-15T16:49:49.042Z,100691.78
2022-10-15T16:52:16.112Z,100692.09
2022-10-15T16:54:42.541Z,100686.34
2022-10-15T16:57:08.982Z,100685.59
2022-10-15T16:59:35.388Z,100684.09
2022-10-15T17:02:02.255Z,100690.78
2022-10-15T17:04:28.684Z,100691.53
2022-10-15T17:06:55.325Z,100690.31
2022-10-15T17:09:23.613Z,100692.28
2022-10-15T17:11:50.141Z,100696.22
2022-10-15T17:14:17.915Z,100706.38
2022-10-15T17:16:47.369Z,100707.56
2022-10-15T17:19:16.312Z,100693.94
2022-10-15T17:21:46.941Z,100701.41
2022-10-15T17:24:15.335Z,100703.38
2022-10-15T17:26:43.043Z,100703.09
2022-10-15T17:29:16.219Z,100704.34
2022-10-15T17:31:42.769Z,100713.53
2022-10-15T17:34:11.330Z,100715.97
2022-10-15T17:36:45.606Z,100714.47
2022-10-15T17:39:13.757Z,100726.13
2022-10-15T17:41:40.582Z,100729.59
2022-10-15T17:44:07.147Z,100726.59
2022-10-15T17:46:33.869Z,100734.00
2022-10-15T17:49:00.876Z,100726.28
2022-10-15T17:51:29.561Z,100728.56
2022-10-15T17:53:56.643Z,100742.66
2022-10-15T17:56:30.763Z,100736.72
2022-10-15T17:58:58.486Z,100733.25
2022-10-15T18:01:39.150Z,100735.72
2022-10-15T18:04:06.932Z,100740.66
2022-10-15T18:06:33.440Z,100742.34
2022-10-15T18:09:00.345Z,100748.56
2022-10-15T18:11:32.439Z,100746.31
2022-10-15T18:13:59.399Z,100742.81
2022-10-15T18:16:26.299Z,100749.53
2022-10-15T18:18:56.602Z,100755.72
2022-10-15T18:21:24.923Z,100748.28
2022-10-15T18:23:51.629Z,100751.50
2022-10-15T18:26:21.176Z,100742.56
2022-10-15T18:28:49.768Z,100742.09
2022-10-15T18:31:16.798Z,100750.44
2022-10-15T18:33:45.594Z,100753.91
2022-10-15T18:36:18.579Z,100757.38
2022-10-15T18:38:45.061Z,100752.69
2022-10-15T18:41:17.440Z,100748.47
2022-10-15T18:43:44.559Z,100752.44
2022-10-15T18:46:10.978Z,100770.75
2022-10-15T18:48:38.361Z,100768.03
2022-10-15T18:51:09.459Z,100773.47
2022-10-15T18:53:37.459Z,100776.19
2022-10-15T18:56:05.819Z,100782.88
2022-10-15T18:58:32.514Z,100775.44
2022-10-15T19:01:10.104Z,100773.16
2022-10-15T19:03:36.709Z,100775.13
2022-10-15T19:06:03.239Z,100777.13
2022-10-15T19:08:31.056Z,100788.03
2022-10-15T19:11:09.612Z,100779.09
2022-10-15T19:13:36.905Z,100779.56
2022-10-15T19:16:05.203Z,100778.34
2022-10-15T19:18:33.120Z,100788.97
2022-10-15T19:20:59.629Z,100803.63
2022-10-15T19:23:26.043Z,100807.56
2022-10-15T19:25:52.509Z,100806.06
2022-10-15T19:28:19.078Z,100796.38
2022-10-15T19:31:03.478Z,100806.53
2022-10-15T19:33:31.852Z,100810.75
2022-10-15T19:35:59.105Z,100806.53
2022-10-15T19:38:26.438Z,100814.69
2022-10-15T19:40:53.585Z,100818.19
2022-10-15T19:43:22.128Z,100820.16
2022-10-15T19:45:49.043Z,100820.59
2022-10-15T19:48:18.357Z,100817.13
2022-10-15T19:50:46.110Z,100819.09
2022-10-15T19:53:16.252Z,100817.88
2022-10-15T19:55:44.188Z,100821.06
2022-10-15T19:58:10.785Z,100822.59
2022-10-15T20:00:37.251Z,100816.88
2022-10-15T20:03:03.807Z,100812.91
2022-10-15T20:05:30.308Z,100823.81
2022-10-15T20:07:56.729Z,100830.75
2022-10-15T20:10:25.928Z,100826.53
2022-10-15T20:12:52.847Z,100833.47
2022-10-15T20:15:19.279Z,100822.31
2022-10-15T20:17:46.843Z,100831.69
2022-10-15T20:20:13.323Z,100834.41
2022-10-15T20:22:39.766Z,100842.88
2022-10-15T20:25:06.494Z,100851.50
2022-10-15T20:27:32.975Z,100855.00
2022-10-15T20:29:59.451Z,100855.44
2022-10-15T20:32:41.420Z,100854.69
2022-10-15T20:35:08.746Z,100863.63
2022-10-15T20:37:35.221Z,100859.38
2022-10-15T20:40:01.661Z,100871.03
2022-10-15T20:42:28.422Z,100873.75
2022-10-15T20:44:55.117Z,100868.81
2022-10-15T20:47:23.081Z,100860.13
2022-10-15T20:49:52.274Z,100864.09
2022-10-15T20:52:19.159Z,100870.28
2022-10-15T20:54:45.734Z,100869.56
2022-10-15T20:57:12.757Z,100871.03
2022-10-15T20:59:39.225Z,100881.66
2022-10-15T21:02:05.682Z,100884.41
2022-10-15T21:04:32.114Z,100880.13
2022-10-15T21:06:58.613Z,100889.09
2022-10-15T21:09:25.176Z,100895.28
2022-10-15T21:11:51.648Z,100900.75
2022-10-15T21:14:18.075Z,100915.53
2022-10-15T21:16:44.805Z,100905.44
2022-10-15T21:19:11.313Z,100910.09
2022-10-15T21:21:37.789Z,100921.44
2022-10-15T21:24:04.553Z,100916.50
2022-10-15T21:26:31.047Z,100921.94
2022-10-15T21:28:59.537Z,100931.63
2022-10-15T21:31:26.829Z,100923.44
2022-10-15T21:33:55.336Z,100931.63
2022-10-15T21:36:26.983Z,100942.50
2022-10-15T21:39:13.675Z,100946.72
2022-10-15T21:41:40.116Z,100947.97
2022-10-15T21:44:07.940Z,100945.25
2022-10-15T21:46:35.155Z,100962.03
2022-10-15T21:49:03.014Z,100960.06
2022-10-15T21:51:31.697Z,100957.34
2022-10-15T21:53:59.031Z,100953.88
2022-10-15T21:56:25.820Z,100957.34
2022-10-15T21:58:54.385Z,100964.75
2022-10-15T22:01:23.274Z,100960.06
2022-10-15T22:03:52.298Z,100964.00
2022-10-15T22:06:20.192Z,100967.91
2022-10-15T22:08:47.340Z,100969.47
2022-10-15T22:11:18.111Z,100967.19
2022-10-15T22:13:46.354Z,100965.94
2022-10-15T22:16:13.928Z,100967.19
2022-10-15T22:18:40.970Z,100962.47
2022-10-15T22:21:15.581Z,100964.94
2022-10-15T22:24:03.293Z,100973.09
2022-10-15T22:26:32.747Z,100973.84
2022-10-15T22:29:00.883Z,100982.78
2022-10-15T22:31:28.361Z,100982.03
2022-10-15T22:33:55.674Z,100992.16
2022-10-15T22:36:24.995Z,100999.13
2022-10-15T22:39:01.748Z,100996.09
2022-10-15T22:41:30.084Z,100996.84
2022-10-15T22:43:57.624Z,101007.00
2022-10-15T22:46:24.514Z,101012.44
2022-10-15T22:48:51.127Z,101011.22
2022-10-15T22:51:17.610Z,101013.97
2022-10-15T22:53:44.044Z,101012.44
2022-10-15T22:56:13.652Z,101012.44
2022-10-15T22:58:40.391Z,101023.34
2022-10-15T23:01:12.011Z,101028.03
2022-10-15T23:03:40.408Z,101021.81
2022-10-15T23:06:07.308Z,101029.25
2022-10-15T23:08:34.642Z,101040.13
2022-10-15T23:11:09.440Z,101032.69
2022-10-15T23:13:37.028Z,101029.97
2022-10-15T23:16:17.826Z,101033.94
2022-10-15T23:18:45.851Z,101027.25
2022-10-15T23:21:18.815Z,101021.53
2022-10-15T23:23:45.761Z,101029.72
2022-10-15T23:26:14.012Z,101025.47
2022-10-15T23:28:41.590Z,101044.06
2022-10-15T23:31:14.617Z,101038.34
2022-10-15T23:33:41.040Z,101041.34
2022-10-15T23:36:07.626Z,101039.09
2022-10-15T23:38:34.088Z,101037.13
2022-10-15T23:41:02.454Z,101045.78
2022-10-15T23:43:29.322Z,101043.06
2022-10-15T23:45:55.860Z,101045.44
2022-10-15T23:48:22.628Z,101046.97
2022-10-15T23:50:49.277Z,101052.41
2022-10-15T23:53:16.223Z,101056.34
2022-10-15T23:55:43.001Z,101052.41
2022-10-15T23:58:09.998Z,101061.03
